Time;durP1;ratioP1;P1;durP2;ratioP2;P2;SDS_P1;SDS_P2;PMS_P1;PMS_P2;Temp;Humidity;BMP_temperature;BMP_pressure;BME280_temperature;BME280_humidity;BME280_pressure;Samples;Min_cycle;Max_cycle;Signal;HPM_P1;HPM_P2
2021/12/13 00:00:55;;;;;;;32.60;19.97;;;9.30;99.90;;;;;;5056345;28;20111;-84
2021/12/13 00:03:47;;;;;;;28.33;19.00;;;9.30;99.90;;;;;;5075237;28;20035;-84
2021/12/13 00:06:23;;;;;;;31.30;18.80;;;9.30;99.90;;;;;;5060310;28;20032;-83
2021/12/13 00:08:54;;;;;;;29.30;18.30;;;9.30;99.90;;;;;;5062251;28;20032;-84
2021/12/13 00:11:26;;;;;;;27.93;18.30;;;9.30;99.90;;;;;;5044995;28;20457;-85
2021/12/13 00:13:59;;;;;;;27.20;18.47;;;9.20;99.90;;;;;;5042914;28;20101;-83
2021/12/13 00:16:37;;;;;;;27.40;18.43;;;9.30;99.90;;;;;;5042919;28;20439;-83
2021/12/13 00:19:11;;;;;;;30.67;18.57;;;9.20;99.90;;;;;;5042241;28;20182;-84
2021/12/13 00:21:43;;;;;;;30.20;19.07;;;9.20;99.90;;;;;;5055706;28;20033;-84
2021/12/13 00:24:20;;;;;;;30.20;17.97;;;9.20;99.90;;;;;;5039584;28;20378;-83
2021/12/13 00:26:49;;;;;;;34.13;20.37;;;9.20;99.90;;;;;;5060097;28;20024;-84
2021/12/13 00:29:20;;;;;;;35.40;21.05;;;9.20;99.90;;;;;;5041746;28;20033;-85
2021/12/13 00:32:16;;;;;;;30.47;19.87;;;9.20;99.90;;;;;;5073564;28;20041;-85
2021/12/13 00:34:53;;;;;;;31.27;19.20;;;9.20;99.90;;;;;;5040455;28;20025;-84
2021/12/13 00:37:31;;;;;;;31.80;18.33;;;9.20;99.90;;;;;;5056194;28;20037;-85
2021/12/13 00:40:20;;;;;;;30.50;17.30;;;9.20;99.90;;;;;;5038962;28;20040;-84
2021/12/13 00:42:51;;;;;;;42.13;24.65;;;9.20;99.90;;;;;;5055899;28;20046;-84
2021/12/13 00:45:21;;;;;;;49.40;27.53;;;9.20;99.90;;;;;;5039575;28;20028;-84
2021/12/13 00:47:48;;;;;;;31.13;19.07;;;9.20;99.90;;;;;;5043195;28;20024;-85
2021/12/13 00:50:25;;;;;;;35.00;19.83;;;9.20;99.90;;;;;;5060187;28;20424;-84
2021/12/13 00:52:52;;;;;;;33.50;19.63;;;9.20;99.90;;;;;;5062051;28;20076;-83
2021/12/13 00:55:22;;;;;;;29.53;18.57;;;9.30;99.90;;;;;;5061818;28;20102;-85
2021/12/13 00:57:50;;;;;;;30.00;17.27;;;9.30;99.90;;;;;;5045305;28;20029;-84
2021/12/13 01:00:28;;;;;;;25.55;15.98;;;9.30;99.90;;;;;;5041509;28;20132;-84
2021/12/13 01:03:01;;;;;;;26.03;15.47;;;9.40;99.90;;;;;;5039150;28;20429;-82
2021/12/13 01:05:53;;;;;;;23.53;14.37;;;9.30;99.90;;;;;;5038975;28;20090;-83
2021/12/13 01:08:51;;;;;;;23.87;14.93;;;9.30;99.90;;;;;;5040121;28;20047;-84
2021/12/13 01:11:20;;;;;;;21.33;14.13;;;9.30;99.90;;;;;;5058423;28;20393;-84
2021/12/13 01:13:49;;;;;;;24.63;14.73;;;9.20;99.90;;;;;;5040342;28;20508;-83
2021/12/13 01:21:59;;;;;;;20.47;13.73;;;9.30;99.90;;;;;;5081375;28;20032;-83
2021/12/13 01:27:31;;;;;;;18.43;12.10;;;9.20;99.90;;;;;;5074304;28;20020;-84
2021/12/13 01:29:57;;;;;;;18.20;11.97;;;9.20;99.90;;;;;;5038940;28;20037;-84
2021/12/13 01:32:25;;;;;;;21.37;12.97;;;9.20;99.90;;;;;;5038565;28;20028;-84
2021/12/13 01:34:51;;;;;;;19.73;11.70;;;9.20;99.90;;;;;;5073882;28;20037;-84
2021/12/13 01:37:17;;;;;;;18.33;11.80;;;9.20;99.90;;;;;;5074387;28;20032;-84
2021/12/13 01:39:48;;;;;;;23.90;12.27;;;9.20;99.90;;;;;;5038722;28;20443;-84
2021/12/13 01:42:26;;;;;;;18.97;12.10;;;9.20;99.90;;;;;;5038862;28;20068;-84
2021/12/13 01:44:59;;;;;;;21.87;12.80;;;9.20;99.90;;;;;;5072117;28;20025;-84
2021/12/13 01:47:29;;;;;;;20.10;13.10;;;9.20;99.90;;;;;;5039363;28;20150;-84
2021/12/13 01:50:09;;;;;;;21.03;12.87;;;9.20;99.90;;;;;;5055967;28;20037;-84
2021/12/13 01:52:37;;;;;;;21.73;12.20;;;9.20;99.90;;;;;;5056087;28;20032;-84
2021/12/13 01:55:23;;;;;;;21.00;12.30;;;9.20;99.90;;;;;;5056176;28;20031;-84
2021/12/13 01:58:07;;;;;;;17.67;11.27;;;9.20;99.90;;;;;;5055605;28;20033;-85
2021/12/13 02:03:22;;;;;;;21.77;11.20;;;9.20;99.90;;;;;;5074387;28;20028;-83
2021/12/13 02:05:49;;;;;;;18.10;10.77;;;9.20;99.90;;;;;;5057444;28;20052;-84
2021/12/13 02:08:21;;;;;;;18.10;11.50;;;9.30;99.90;;;;;;5040853;28;20060;-84
2021/12/13 02:10:56;;;;;;;20.13;11.77;;;9.20;99.90;;;;;;5074468;28;20036;-84
2021/12/13 02:13:24;;;;;;;15.87;10.50;;;9.20;99.90;;;;;;5061883;28;20150;-84
2021/12/13 02:18:49;;;;;;;15.60;9.93;;;9.20;99.90;;;;;;5039749;28;20402;-84
2021/12/13 02:21:32;;;;;;;13.50;9.10;;;9.20;99.90;;;;;;5044349;28;20151;-85
2021/12/13 02:24:03;;;;;;;14.37;9.53;;;9.20;99.90;;;;;;5074737;28;20043;-84
2021/12/13 02:26:31;;;;;;;14.50;9.53;;;9.20;99.90;;;;;;5037641;28;20539;-84
2021/12/13 02:29:05;;;;;;;14.00;9.13;;;9.20;99.90;;;;;;5054299;28;20032;-84
2021/12/13 02:31:37;;;;;;;15.10;9.00;;;9.20;99.90;;;;;;5054030;28;20439;-84
2021/12/13 02:34:07;;;;;;;13.17;8.27;;;9.20;99.90;;;;;;5037601;28;20162;-84
2021/12/13 02:36:41;;;;;;;14.27;9.23;;;9.10;99.90;;;;;;5042178;28;20402;-84
2021/12/13 02:39:17;;;;;;;15.20;8.70;;;9.20;99.90;;;;;;5072137;28;20481;-85
2021/12/13 02:41:44;;;;;;;12.97;8.43;;;9.20;99.90;;;;;;5054517;28;20469;-84
2021/12/13 02:44:44;;;;;;;17.20;8.87;;;9.20;99.90;;;;;;5038338;28;20043;-85
2021/12/13 02:47:34;;;;;;;14.77;8.77;;;9.10;99.90;;;;;;5035796;28;20044;-85
2021/12/13 02:50:02;;;;;;;13.80;8.73;;;9.10;99.90;;;;;;5076352;28;20037;-84
2021/12/13 02:52:28;;;;;;;12.73;7.80;;;9.10;99.90;;;;;;5047488;28;20042;-84
2021/12/13 02:55:02;;;;;;;11.77;7.80;;;9.10;99.90;;;;;;5046822;28;20028;-83
2021/12/13 02:57:35;;;;;;;12.87;8.60;;;9.10;99.90;;;;;;5041537;28;20081;-84
2021/12/13 03:00:19;;;;;;;12.63;8.07;;;9.10;99.90;;;;;;5041703;28;20033;-85
2021/12/13 03:02:49;;;;;;;13.20;7.37;;;9.10;99.90;;;;;;5057909;28;20062;-84
2021/12/13 03:05:29;;;;;;;12.27;7.30;;;9.10;99.90;;;;;;5042511;28;20056;-84
2021/12/13 03:08:00;;;;;;;12.33;8.10;;;9.10;99.90;;;;;;5058496;28;20024;-85
2021/12/13 03:10:31;;;;;;;11.67;7.20;;;9.00;99.90;;;;;;5076547;28;20029;-83
2021/12/13 03:12:58;;;;;;;14.93;8.20;;;9.10;99.90;;;;;;5061290;28;20032;-83
2021/12/13 03:15:28;;;;;;;13.60;7.47;;;9.10;99.90;;;;;;5081767;22;20665;-82
2021/12/13 03:18:06;;;;;;;12.03;7.10;;;9.00;99.90;;;;;;5054375;28;20378;-82
2021/12/13 03:21:02;;;;;;;12.20;7.33;;;9.10;99.90;;;;;;5036386;28;20500;-82
2021/12/13 03:23:37;;;;;;;11.13;6.77;;;9.10;99.90;;;;;;5036747;28;20037;-82
2021/12/13 03:26:08;;;;;;;13.77;7.47;;;9.10;99.90;;;;;;5053037;28;20021;-84
2021/12/13 03:28:50;;;;;;;12.67;7.60;;;9.10;99.90;;;;;;5036179;28;20029;-82
2021/12/13 03:31:27;;;;;;;10.20;6.47;;;9.10;99.90;;;;;;5053018;28;20033;-83
2021/12/13 03:34:07;;;;;;;10.97;6.93;;;9.10;99.90;;;;;;5036634;28;20078;-82
2021/12/13 03:36:42;;;;;;;13.03;7.60;;;9.10;99.90;;;;;;5053285;28;20496;-82
2021/12/13 03:39:11;;;;;;;13.73;7.07;;;9.10;99.90;;;;;;5052590;28;20033;-82
2021/12/13 03:41:41;;;;;;;12.47;7.33;;;9.00;99.90;;;;;;5054007;28;20473;-82
2021/12/13 03:44:13;;;;;;;14.10;8.63;;;9.00;99.90;;;;;;5054312;28;20021;-82
2021/12/13 03:46:42;;;;;;;13.53;7.77;;;9.10;99.90;;;;;;5054573;28;20037;-83
2021/12/13 03:49:09;;;;;;;12.50;7.70;;;9.00;99.90;;;;;;5052973;28;20043;-82
2021/12/13 03:51:38;;;;;;;12.70;7.30;;;9.00;99.90;;;;;;5036303;28;20073;-82
2021/12/13 03:54:08;;;;;;;10.00;6.40;;;9.00;99.90;;;;;;5054051;28;20052;-82
2021/12/13 03:56:39;;;;;;;9.40;6.20;;;9.10;99.90;;;;;;5052377;28;20044;-82
2021/12/13 03:59:10;;;;;;;12.00;6.40;;;9.00;99.90;;;;;;5052526;28;20032;-82
2021/12/13 04:01:42;;;;;;;12.63;6.77;;;9.10;99.90;;;;;;5054113;28;20025;-82
2021/12/13 04:04:15;;;;;;;10.00;6.53;;;9.10;99.90;;;;;;5036306;28;20021;-82
2021/12/13 04:06:56;;;;;;;10.87;6.80;;;9.10;99.90;;;;;;5036323;28;20028;-83
2021/12/13 04:09:24;;;;;;;10.03;6.50;;;9.10;99.90;;;;;;5036131;28;20028;-82
2021/12/13 04:11:57;;;;;;;10.87;7.20;;;9.10;99.90;;;;;;5053796;28;20033;-82
2021/12/13 04:14:30;;;;;;;11.63;6.97;;;9.00;99.90;;;;;;5053923;28;20420;-83
2021/12/13 04:20:24;;;;;;;13.63;7.20;;;9.00;99.90;;;;;;5055736;28;20647;-83
2021/12/13 04:22:53;;;;;;;14.43;7.27;;;9.00;99.90;;;;;;5039228;28;20058;-81
2021/12/13 04:25:20;;;;;;;;;;;9.00;99.90;;;;;;5054278;28;20100;-88
2021/12/13 04:28:02;;;;;;;10.07;6.63;;;9.00;99.90;;;;;;5035360;28;19916;-88
2021/12/13 04:30:43;;;;;;;15.67;7.30;;;9.00;99.90;;;;;;5032490;28;20440;-82
2021/12/13 04:33:34;;;;;;;11.87;7.23;;;9.00;99.90;;;;;;5032162;28;20069;-88
2021/12/13 04:36:04;;;;;;;15.13;8.67;;;9.00;99.90;;;;;;5015297;28;20046;-83
2021/12/13 04:38:53;;;;;;;15.03;7.17;;;9.10;99.90;;;;;;5031989;28;20500;-82
2021/12/13 04:41:30;;;;;;;13.98;7.85;;;9.10;99.90;;;;;;5032383;28;20076;-82
2021/12/13 04:44:09;;;;;;;12.37;6.77;;;9.20;99.90;;;;;;5015867;28;20041;-82
2021/12/13 04:46:38;;;;;;;13.02;7.88;;;9.20;99.90;;;;;;5033381;28;20029;-82
2021/12/13 04:49:08;;;;;;;10.57;7.45;;;9.20;99.90;;;;;;5035915;28;20061;-82
2021/12/13 04:51:57;;;;;;;12.93;6.77;;;9.10;99.90;;;;;;5050012;28;20051;-82
2021/12/13 04:54:25;;;;;;;11.00;7.50;;;9.10;99.90;;;;;;5051830;28;20083;-82
2021/12/13 04:56:53;;;;;;;10.97;6.63;;;9.10;99.90;;;;;;5051720;28;20032;-83
2021/12/13 04:59:19;;;;;;;10.93;6.43;;;9.10;99.90;;;;;;5051275;28;20033;-83
2021/12/13 05:01:53;;;;;;;9.80;6.47;;;9.10;99.90;;;;;;5050309;28;20036;-83
2021/12/13 05:04:21;;;;;;;12.47;7.23;;;9.00;99.90;;;;;;5051653;28;20029;-82
2021/12/13 05:06:49;;;;;;;11.13;6.60;;;9.00;99.90;;;;;;5050015;28;20029;-82
2021/12/13 05:09:17;;;;;;;13.43;7.20;;;9.00;99.90;;;;;;5050879;28;20044;-82
2021/12/13 05:12:02;;;;;;;12.67;7.20;;;9.00;99.90;;;;;;5050100;28;20033;-82
2021/12/13 05:14:33;;;;;;;11.83;6.97;;;9.00;99.90;;;;;;5051626;28;20029;-82
2021/12/13 05:17:16;;;;;;;11.50;7.07;;;9.00;99.90;;;;;;5050291;28;20040;-83
2021/12/13 05:19:46;;;;;;;9.47;6.40;;;9.00;99.90;;;;;;5050126;28;20397;-82
2021/12/13 05:22:15;;;;;;;11.97;6.67;;;9.00;99.90;;;;;;5049845;28;20032;-82
2021/12/13 05:24:48;;;;;;;11.23;6.80;;;9.00;99.90;;;;;;5051234;28;20422;-82
2021/12/13 05:27:24;;;;;;;10.80;6.10;;;9.00;99.90;;;;;;5050094;28;20044;-82
2021/12/13 05:29:53;;;;;;;10.63;6.67;;;8.90;99.90;;;;;;5049215;28;20029;-84
2021/12/13 05:32:30;;;;;;;8.68;5.75;;;9.00;99.90;;;;;;5050929;28;20035;-83
2021/12/13 05:35:23;;;;;;;10.23;6.33;;;8.90;99.90;;;;;;5049263;28;20036;-83
2021/12/13 05:37:53;;;;;;;9.70;6.40;;;8.90;99.90;;;;;;5032746;28;20127;-89
2021/12/13 05:40:19;;;;;;;9.70;6.13;;;8.90;99.90;;;;;;5066407;28;20040;-88
2021/12/13 05:42:45;;;;;;;11.10;6.10;;;8.90;99.90;;;;;;5049906;28;20124;-90
2021/12/13 05:45:15;;;;;;;10.57;7.10;;;8.90;99.90;;;;;;5049994;28;20029;-91
2021/12/13 05:48:05;;;;;;;10.13;7.10;;;8.90;99.90;;;;;;5033703;28;20028;-85
2021/12/13 05:50:36;;;;;;;11.23;7.03;;;8.90;99.90;;;;;;5049448;28;20037;-87
2021/12/13 05:53:25;;;;;;;10.47;7.00;;;8.90;99.90;;;;;;5050399;28;20036;-90
2021/12/13 05:56:10;;;;;;;11.27;6.83;;;8.90;99.90;;;;;;5026230;28;20052;-88
2021/12/13 05:58:42;;;;;;;12.63;7.00;;;8.80;99.90;;;;;;5033276;28;20083;-91
2021/12/13 06:01:19;;;;;;;14.87;7.27;;;8.90;99.90;;;;;;5049635;28;20043;-89
2021/12/13 06:04:08;;;;;;;12.13;7.00;;;8.80;99.90;;;;;;5050245;28;20039;-91
2021/12/13 06:06:53;;;;;;;12.23;6.90;;;8.80;99.90;;;;;;5013737;28;20048;-84
2021/12/13 06:10:03;;;;;;;12.17;6.30;;;8.80;99.90;;;;;;5051405;28;20060;-83
2021/12/13 06:12:47;;;;;;;11.50;7.00;;;8.80;99.90;;;;;;5045456;28;20127;-86
2021/12/13 06:15:16;;;;;;;12.00;6.90;;;8.80;99.90;;;;;;5048784;28;20499;-89
2021/12/13 06:18:07;;;;;;;11.77;7.30;;;8.90;99.90;;;;;;5048979;28;20124;-84
2021/12/13 06:20:41;;;;;;;11.17;7.10;;;8.90;99.90;;;;;;5051449;28;20048;-84
2021/12/13 06:23:12;;;;;;;13.33;7.33;;;8.80;99.90;;;;;;5053664;28;20044;-83
2021/12/13 06:25:42;;;;;;;13.60;7.70;;;8.90;99.90;;;;;;5034997;28;20486;-83
2021/12/13 06:28:20;;;;;;;14.73;8.50;;;8.80;99.90;;;;;;5052187;28;20029;-83
2021/12/13 06:30:53;;;;;;;12.77;7.60;;;8.80;99.90;;;;;;5051981;28;20498;-84
2021/12/13 06:33:19;;;;;;;15.43;7.57;;;8.80;99.90;;;;;;5053430;28;20041;-83
2021/12/13 06:35:49;;;;;;;12.73;7.37;;;8.80;99.90;;;;;;5052753;28;20496;-83
2021/12/13 06:38:29;;;;;;;18.10;10.63;;;8.80;99.90;;;;;;5052623;28;20033;-83
2021/12/13 06:41:16;;;;;;;15.90;8.67;;;8.80;99.90;;;;;;5052527;28;20258;-83
2021/12/13 06:44:00;;;;;;;12.37;7.80;;;8.80;99.90;;;;;;5052361;28;20075;-83
2021/12/13 06:46:26;;;;;;;13.17;7.97;;;8.80;99.90;;;;;;5035892;28;20059;-83
2021/12/13 06:49:05;;;;;;;12.00;7.10;;;8.90;99.90;;;;;;5052791;28;20029;-83
2021/12/13 06:51:58;;;;;;;12.37;7.97;;;8.80;99.90;;;;;;5052277;28;20029;-83
2021/12/13 06:54:57;;;;;;;13.33;8.03;;;8.90;99.90;;;;;;5051797;28;20470;-83
2021/12/13 06:57:23;;;;;;;13.18;8.00;;;8.80;99.90;;;;;;5053536;28;20029;-84
2021/12/13 06:59:55;;;;;;;11.07;6.87;;;8.80;99.90;;;;;;5051677;28;20037;-83
2021/12/13 07:02:28;;;;;;;12.00;7.13;;;8.80;99.90;;;;;;5052085;28;20127;-82
2021/12/13 07:05:03;;;;;;;13.17;7.53;;;8.90;99.90;;;;;;5052446;28;20021;-84
2021/12/13 07:07:38;;;;;;;18.47;8.53;;;8.90;99.90;;;;;;5035443;28;20485;-89
2021/12/13 07:10:16;;;;;;;11.10;6.83;;;8.90;99.90;;;;;;5054523;28;20040;-92
2021/12/13 07:12:52;;;;;;;13.50;7.93;;;8.90;99.90;;;;;;5022227;28;20039;-89
2021/12/13 07:15:30;;;;;;;12.37;7.20;;;9.00;99.90;;;;;;5034801;28;20037;-90
2021/12/13 07:18:28;;;;;;;15.87;7.80;;;9.00;99.90;;;;;;5050067;28;20500;-91
2021/12/13 07:20:57;;;;;;;12.40;7.63;;;9.10;99.90;;;;;;5045473;28;20140;-87
2021/12/13 07:23:23;;;;;;;12.65;7.05;;;9.10;99.90;;;;;;5037631;28;20025;-92
2021/12/13 07:25:51;;;;;;;12.43;7.40;;;9.10;99.90;;;;;;5052817;28;20613;-91
2021/12/13 07:28:37;;;;;;;13.13;8.20;;;9.10;99.90;;;;;;5036944;28;20484;-91
2021/12/13 07:31:06;;;;;;;16.33;7.70;;;9.10;99.90;;;;;;5051754;28;20108;-93
2021/12/13 07:33:42;;;;;;;16.27;7.80;;;9.10;99.90;;;;;;5053348;28;20033;-93
2021/12/13 07:36:27;;;;;;;22.27;9.93;;;9.10;99.90;;;;;;5052440;28;20021;-89
2021/12/13 07:39:06;;;;;;;17.30;9.77;;;9.10;99.90;;;;;;5035028;28;20593;-84
2021/12/13 07:41:52;;;;;;;24.63;10.63;;;9.10;99.90;;;;;;5051870;28;20071;-90
2021/12/13 07:44:31;;;;;;;128.27;21.23;;;9.10;99.90;;;;;;5052698;28;20103;-84
2021/12/13 07:46:59;;;;;;;87.33;17.30;;;9.10;99.90;;;;;;5053731;28;20393;-84
2021/12/13 07:49:31;;;;;;;78.47;18.20;;;9.10;99.90;;;;;;5051190;28;20421;-83
2021/12/13 07:52:00;;;;;;;90.80;17.70;;;9.10;99.90;;;;;;5052223;28;20056;-84
2021/12/13 07:54:27;;;;;;;79.13;14.80;;;9.10;99.90;;;;;;5052753;28;20044;-84
2021/12/13 07:57:02;;;;;;;45.00;12.23;;;9.10;99.90;;;;;;5056153;28;20079;-84
2021/12/13 07:59:31;;;;;;;70.37;14.43;;;9.10;99.90;;;;;;5053076;28;20026;-83
2021/12/13 08:02:22;;;;;;;32.53;9.53;;;9.10;99.90;;;;;;5055281;28;20088;-83
2021/12/13 08:05:00;;;;;;;58.33;11.93;;;9.10;99.90;;;;;;5054613;28;20025;-84
2021/12/13 08:07:31;;;;;;;92.70;16.10;;;9.10;99.90;;;;;;5052320;28;20025;-84
2021/12/13 08:10:10;;;;;;;61.10;15.97;;;9.00;99.90;;;;;;5050901;28;20050;-87
2021/12/13 08:12:40;;;;;;;20.80;9.73;;;9.10;99.90;;;;;;5051528;28;20036;-91
2021/12/13 08:15:21;;;;;;;15.73;8.57;;;9.10;99.90;;;;;;5035081;28;20405;-90
2021/12/13 08:17:59;;;;;;;16.70;8.07;;;9.10;99.90;;;;;;5051912;28;20416;-89
2021/12/13 08:20:45;;;;;;;20.70;8.70;;;9.10;99.90;;;;;;5052618;28;20029;-89
2021/12/13 08:23:24;;;;;;;104.37;16.30;;;9.10;99.90;;;;;;5029885;28;20065;-88
2021/12/13 08:25:54;;;;;;;51.95;10.55;;;9.10;99.90;;;;;;5051047;28;20036;-84
2021/12/13 08:28:36;;;;;;;19.70;8.50;;;9.10;99.90;;;;;;5066293;28;20025;-90
2021/12/13 08:31:05;;;;;;;14.07;7.10;;;9.20;99.90;;;;;;5048522;28;20087;-90
2021/12/13 08:33:40;;;;;;;12.18;6.97;;;9.20;99.90;;;;;;5049357;28;20032;-87
2021/12/13 08:36:09;;;;;;;120.77;16.53;;;9.10;99.90;;;;;;5047812;28;20052;-83
2021/12/13 08:38:58;;;;;;;68.10;13.37;;;9.20;99.90;;;;;;5053224;28;20029;-85
2021/12/13 08:41:45;;;;;;;18.35;7.97;;;9.30;99.90;;;;;;5065246;28;20029;-83
2021/12/13 08:44:11;;;;;;;12.43;6.77;;;9.20;99.90;;;;;;5049113;28;20491;-82
2021/12/13 08:46:52;;;;;;;13.20;6.67;;;9.30;99.90;;;;;;5063085;22;20041;-83
2021/12/13 08:49:47;;;;;;;53.80;10.43;;;9.20;99.90;;;;;;5021017;28;20086;-84
2021/12/13 08:52:35;;;;;;;59.13;12.97;;;9.30;99.90;;;;;;5030945;28;20049;-84
2021/12/13 08:55:10;;;;;;;24.08;7.68;;;9.30;99.90;;;;;;5035181;28;20028;-84
2021/12/13 08:58:07;;;;;;;16.20;7.90;;;9.30;99.90;;;;;;5024056;28;20097;-83
2021/12/13 09:00:44;;;;;;;11.97;7.80;;;9.30;99.90;;;;;;5023761;28;20174;-83
2021/12/13 09:03:10;;;;;;;15.27;7.67;;;9.30;99.90;;;;;;5030550;28;20025;-83
2021/12/13 09:05:51;;;;;;;14.87;8.37;;;9.20;99.90;;;;;;5034399;28;20051;-82
2021/12/13 09:08:24;;;;;;;14.63;6.83;;;9.20;99.90;;;;;;5035177;28;20036;-83
2021/12/13 09:10:52;;;;;;;43.83;10.33;;;9.20;99.90;;;;;;5021091;28;20419;-84
2021/12/13 09:13:39;;;;;;;41.15;9.82;;;9.20;99.90;;;;;;5032331;28;20049;-81
2021/12/13 09:16:05;;;;;;;108.80;17.27;;;9.20;99.90;;;;;;5039284;28;20125;-84
2021/12/13 09:18:31;;;;;;;27.70;9.23;;;9.30;99.90;;;;;;5040563;28;20106;-83
2021/12/13 09:20:58;;;;;;;23.93;8.13;;;9.30;99.90;;;;;;5040260;28;20032;-85
2021/12/13 09:23:39;;;;;;;79.13;11.40;;;9.20;99.90;;;;;;5040285;28;20025;-85
2021/12/13 09:26:12;;;;;;;75.53;13.10;;;9.30;99.90;;;;;;5039536;28;20091;-84
2021/12/13 09:28:47;;;;;;;30.40;7.87;;;9.30;99.90;;;;;;5040335;28;20033;-87
2021/12/13 09:31:27;;;;;;;19.90;6.73;;;9.30;99.90;;;;;;5040496;28;20129;-85
2021/12/13 09:33:57;;;;;;;11.43;5.50;;;9.30;99.90;;;;;;5038334;28;20034;-86
2021/12/13 09:36:33;;;;;;;25.97;7.30;;;9.30;99.90;;;;;;5036955;28;20548;-85
2021/12/13 09:39:20;;;;;;;15.60;6.33;;;9.40;99.90;;;;;;5024908;28;20032;-83
2021/12/13 09:42:06;;;;;;;15.63;8.57;;;9.40;99.90;;;;;;5044642;28;21267;-85
2021/12/13 09:44:55;;;;;;;14.67;6.60;;;9.40;99.90;;;;;;5034475;28;20029;-84
2021/12/13 09:47:30;;;;;;;23.27;6.77;;;9.40;99.90;;;;;;5022092;28;20133;-82
2021/12/13 09:49:55;;;;;;;67.63;23.57;;;9.40;99.90;;;;;;5040275;28;20103;-84
2021/12/13 09:52:29;;;;;;;78.63;16.60;;;9.40;99.90;;;;;;5039736;28;20431;-83
2021/12/13 09:55:07;;;;;;;38.37;8.33;;;9.40;99.90;;;;;;5021912;28;20029;-83
2021/12/13 09:57:57;;;;;;;39.58;9.90;;;9.40;99.90;;;;;;5044301;28;20485;-83
2021/12/13 10:00:31;;;;;;;13.52;6.55;;;9.40;99.90;;;;;;5039321;28;20546;-83
2021/12/13 10:03:05;;;;;;;8.93;5.87;;;9.40;99.90;;;;;;5039368;28;20041;-83
2021/12/13 10:05:38;;;;;;;9.50;5.30;;;9.40;99.90;;;;;;5023127;28;20059;-83
2021/12/13 10:08:13;;;;;;;16.30;7.87;;;9.40;99.90;;;;;;5045374;28;21494;-82
2021/12/13 10:10:51;;;;;;;12.90;6.83;;;9.40;99.90;;;;;;5038011;28;20394;-82
2021/12/13 10:13:27;;;;;;;10.87;5.80;;;9.40;99.90;;;;;;5025388;28;20037;-83
2021/12/13 10:16:02;;;;;;;13.17;6.30;;;9.40;99.90;;;;;;5048540;28;20528;-83
2021/12/13 10:18:31;;;;;;;10.03;5.33;;;9.40;99.90;;;;;;5044810;28;20120;-83
2021/12/13 10:21:06;;;;;;;11.05;4.40;;;9.50;99.90;;;;;;5036704;28;20108;-84
2021/12/13 10:23:37;;;;;;;8.47;4.83;;;9.50;99.90;;;;;;5038383;28;20036;-82
2021/12/13 10:26:06;;;;;;;10.60;5.30;;;9.50;99.90;;;;;;5042119;28;20131;-84
2021/12/13 10:28:37;;;;;;;14.20;5.67;;;9.50;99.90;;;;;;5046743;28;20029;-82
2021/12/13 10:31:07;;;;;;;22.93;7.43;;;9.50;99.90;;;;;;5037734;28;20091;-84
2021/12/13 10:33:35;;;;;;;41.27;8.13;;;9.50;99.90;;;;;;5043330;28;20393;-85
2021/12/13 10:36:02;;;;;;;29.30;6.83;;;9.50;99.90;;;;;;5044457;28;20041;-84
2021/12/13 10:38:39;;;;;;;109.43;16.30;;;9.50;99.90;;;;;;5037115;28;20041;-83
2021/12/13 10:41:13;;;;;;;33.17;6.60;;;9.50;99.90;;;;;;5037189;28;20053;-82
2021/12/13 10:43:45;;;;;;;14.30;6.10;;;9.60;99.90;;;;;;5042653;28;20389;-84
2021/12/13 10:46:18;;;;;;;9.07;4.97;;;9.60;99.90;;;;;;5029665;28;20449;-81
2021/12/13 10:48:53;;;;;;;7.87;3.73;;;9.60;99.90;;;;;;5039972;28;20029;-82
2021/12/13 10:51:28;;;;;;;5.27;3.57;;;9.60;99.90;;;;;;5038798;28;20033;-81
2021/12/13 10:53:54;;;;;;;33.03;6.03;;;9.60;99.90;;;;;;5038493;28;20048;-81
2021/12/13 10:56:27;;;;;;;11.60;3.73;;;9.60;99.90;;;;;;5041319;28;20033;-84
2021/12/13 10:58:57;;;;;;;6.97;3.70;;;9.70;99.90;;;;;;5026433;28;20056;-84
2021/12/13 11:01:37;;;;;;;21.97;6.10;;;9.60;99.90;;;;;;5039756;28;20079;-81
2021/12/13 11:04:06;;;;;;;;;;;9.60;99.90;;;;;;5043634;28;20060;-84
2021/12/13 11:06:35;;;;;;;38.42;6.97;;;9.70;99.90;;;;;;5027099;28;20430;-84
2021/12/13 11:09:05;;;;;;;19.50;5.22;;;9.60;99.90;;;;;;5040865;28;20040;-83
2021/12/13 11:11:36;;;;;;;14.50;5.67;;;9.60;99.90;;;;;;5044604;28;20040;-84
2021/12/13 11:14:07;;;;;;;12.57;4.53;;;9.60;99.90;;;;;;5038854;28;20103;-84
2021/12/13 11:16:41;;;;;;;9.80;4.70;;;9.60;99.90;;;;;;5022397;28;20033;-83
2021/12/13 11:19:12;;;;;;;23.10;8.17;;;9.60;99.90;;;;;;5021226;28;20174;-83
2021/12/13 11:21:41;;;;;;;14.00;5.87;;;9.60;99.90;;;;;;5042723;28;20128;-84
2021/12/13 11:24:09;;;;;;;7.25;3.83;;;9.70;99.90;;;;;;5017306;28;20116;-84
2021/12/13 11:26:39;;;;;;;7.10;3.45;;;9.70;99.90;;;;;;5034453;28;20044;-83
2021/12/13 11:29:07;;;;;;;7.70;3.03;;;9.80;99.90;;;;;;5040390;28;20052;-83
2021/12/13 11:31:51;;;;;;;4.37;2.80;;;9.70;99.90;;;;;;5042011;28;20025;-83
2021/12/13 11:34:48;;;;;;;7.70;3.17;;;9.70;99.90;;;;;;5041471;28;20092;-87
2021/12/13 11:37:55;;;;;;;4.83;3.23;;;9.70;99.90;;;;;;5040818;28;20031;-80
2021/12/13 11:40:58;;;;;;;5.77;3.60;;;9.80;99.90;;;;;;5038426;28;20033;-81
2021/12/13 11:43:35;;;;;;;6.43;3.53;;;9.80;99.90;;;;;;5025467;28;20048;-81
2021/12/13 11:46:59;;;;;;;5.20;3.27;;;9.80;99.90;;;;;;5026765;28;20025;-82
2021/12/13 11:50:02;;;;;;;5.63;3.10;;;9.80;99.90;;;;;;4993781;28;20083;-84
2021/12/13 11:53:06;;;;;;;5.67;3.00;;;9.80;99.90;;;;;;5045819;28;20035;-83
2021/12/13 11:55:55;;;;;;;5.00;2.80;;;9.90;99.90;;;;;;5039078;28;20030;-84
2021/12/13 11:58:58;;;;;;;5.63;3.13;;;9.90;99.90;;;;;;5038606;28;20037;-82
2021/12/13 12:02:03;;;;;;;5.77;2.63;;;9.90;99.90;;;;;;5034715;28;20052;-82
2021/12/13 12:05:06;;;;;;;5.40;2.67;;;9.90;99.90;;;;;;5005121;28;20124;-82
2021/12/13 12:08:02;;;;;;;4.63;2.80;;;9.90;99.90;;;;;;5034336;28;20047;-81
2021/12/13 12:10:39;;;;;;;6.90;2.93;;;9.90;99.90;;;;;;5039883;28;20025;-82
2021/12/13 12:13:26;;;;;;;4.30;2.50;;;9.90;99.90;;;;;;5034443;28;20347;-80
2021/12/13 12:15:58;;;;;;;6.13;2.83;;;9.90;99.90;;;;;;5036532;28;20371;-82
2021/12/13 12:18:25;;;;;;;4.10;2.50;;;9.90;99.90;;;;;;5035762;28;20037;-83
2021/12/13 12:21:33;;;;;;;3.80;2.30;;;9.90;99.90;;;;;;5032816;28;20048;-81
2021/12/13 12:24:11;;;;;;;5.32;2.30;;;9.90;99.90;;;;;;5038322;28;20029;-81
2021/12/13 12:26:38;;;;;;;4.60;2.47;;;9.90;99.90;;;;;;5036103;28;20047;-81
2021/12/13 12:29:10;;;;;;;4.60;2.60;;;9.90;99.90;;;;;;5034063;28;20033;-83
2021/12/13 12:31:41;;;;;;;6.13;2.80;;;9.90;99.90;;;;;;5022904;28;20060;-81
2021/12/13 12:34:09;;;;;;;7.60;2.60;;;10.00;99.90;;;;;;5024225;28;20037;-83
2021/12/13 12:36:56;;;;;;;5.43;2.60;;;10.00;99.90;;;;;;5035868;28;20051;-80
2021/12/13 12:39:52;;;;;;;6.17;2.90;;;10.00;99.90;;;;;;5039680;28;20236;-81
2021/12/13 12:42:30;;;;;;;4.87;2.43;;;10.00;99.90;;;;;;5039756;28;20120;-81
2021/12/13 12:44:56;;;;;;;5.40;2.40;;;10.00;99.90;;;;;;5016869;28;20631;-82
2021/12/13 12:47:47;;;;;;;4.30;2.10;;;9.90;99.90;;;;;;5019364;28;20026;-82
2021/12/13 12:50:27;;;;;;;3.70;1.90;;;10.00;99.90;;;;;;5025591;28;20156;-81
2021/12/13 12:53:00;;;;;;;3.70;2.10;;;10.00;99.90;;;;;;5031827;28;20199;-82
2021/12/13 12:55:38;;;;;;;3.17;1.90;;;10.00;99.90;;;;;;5040033;28;20075;-83
2021/12/13 12:58:08;;;;;;;3.07;1.67;;;10.00;99.90;;;;;;5043060;28;20036;-83
2021/12/13 13:00:34;;;;;;;2.87;1.80;;;10.00;99.90;;;;;;5044658;28;20438;-80
2021/12/13 13:03:00;;;;;;;3.73;1.70;;;10.00;99.90;;;;;;5035935;28;20030;-84
2021/12/13 13:05:28;;;;;;;3.83;1.80;;;10.00;99.90;;;;;;5036818;28;20033;-84
2021/12/13 13:07:54;;;;;;;3.10;1.73;;;10.00;99.90;;;;;;5023981;28;20025;-83
2021/12/13 13:13:10;;;;;;;3.20;1.40;;;10.00;99.90;;;;;;5040278;28;20037;-81
2021/12/13 13:15:45;;;;;;;2.63;1.30;;;10.00;99.90;;;;;;5037112;28;20033;-84
2021/12/13 13:18:16;;;;;;;3.10;1.30;;;10.00;99.90;;;;;;5017968;28;20041;-80
2021/12/13 13:20:50;;;;;;;3.03;1.50;;;10.00;99.90;;;;;;5040623;28;20043;-83
2021/12/13 13:23:18;;;;;;;2.63;1.37;;;10.00;99.90;;;;;;5034622;28;20033;-83
2021/12/13 13:25:50;;;;;;;2.10;1.20;;;10.00;99.90;;;;;;5040980;28;20032;-81
2021/12/13 13:28:53;;;;;;;3.60;1.40;;;10.00;99.90;;;;;;5018407;28;20347;-81
2021/12/13 13:31:18;;;;;;;2.97;1.07;;;10.00;99.90;;;;;;5034938;28;20033;-82
2021/12/13 13:33:53;;;;;;;2.07;1.00;;;10.00;99.90;;;;;;5040474;28;20034;-79
2021/12/13 13:36:50;;;;;;;4.07;1.00;;;10.00;99.90;;;;;;5039510;28;20044;-82
2021/12/13 13:39:18;;;;;;;3.23;1.00;;;10.00;99.90;;;;;;5036802;28;20030;-82
2021/12/13 13:41:49;;;;;;;4.37;1.50;;;10.00;99.90;;;;;;5042576;28;20113;-81
2021/12/13 13:44:20;;;;;;;11.00;2.10;;;10.10;99.90;;;;;;5044621;28;20029;-81
2021/12/13 13:46:46;;;;;;;3.73;1.37;;;10.20;99.90;;;;;;5037783;28;20395;-78
2021/12/13 13:49:22;;;;;;;4.90;2.07;;;10.30;99.90;;;;;;5035573;28;20115;-84
2021/12/13 13:51:48;;;;;;;2.07;1.17;;;10.30;99.90;;;;;;5021907;28;20037;-81